KRDR/RDR METAR and TAF weather

Enter ICAO airport designator
Station Type Date Time Source
KRDR METAR 2019/02/16 06:56 UTC NOAA

KRDR 160656Z AUTO 00000KT 10SM CLR M28/M31 A3019 RMK AO2 SLP260 T12801315


Station Type Date Time Source
KRDR Decoded METAR 2019/02/16 06:56 UTC NOAA

Grand Forks Air Force Base, ND, United States (KRDR) 47-58N 097-24W 278M
Feb 16, 2019 - 01:56 AM EST / 2019.02.16 0656 UTC
Wind: Calm:0
Visibility: 10 mile(s):0
Sky conditions: clear
Temperature: -18.4 F (-28.0 C)
Dew Point: -24.7 F (-31.5 C)
Relative Humidity: 71%
Pressure (altimeter): 30.19 in. Hg (1022 hPa)
ob: KRDR 160656Z AUTO 00000KT 10SM CLR M28/M31 A3019 RMK AO2 SLP260 T12801315
cycle: 7

Station Type Date Time Source
KRDR TAF 2019/02/16 05:42 UTC NOAA

TAF
AMD KRDR 160530Z 1605/1708 VRB06KT 9999 SCT070 QNH3016INS
BECMG 1613/1614 VRB06KT 9999 SCT010 BKN020 620202 QNH3018INS
BECMG 1623/1624 04009KT 9999 BKN015 620154 QNH3018INS TXM10/1621Z TNM27/1605Z


Example: see airport list